createdAt,value
2017-10-25T00:00:11.473Z,0
2017-10-25T00:01:11.103Z,0
2017-10-25T00:02:11.072Z,0
2017-10-25T00:03:11.388Z,0
2017-10-25T00:04:10.414Z,0
2017-10-25T00:05:10.722Z,0
2017-10-25T00:06:11.353Z,0
2017-10-25T00:07:11.331Z,0
2017-10-25T00:08:10.650Z,0
2017-10-25T00:09:11.297Z,0
2017-10-25T00:10:10.976Z,0
2017-10-25T00:11:10.963Z,0
2017-10-25T00:12:10.600Z,0
2017-10-25T00:13:11.220Z,0
2017-10-25T00:14:10.874Z,0
2017-10-25T00:15:10.866Z,0
2017-10-25T00:16:10.849Z,0
2017-10-25T00:17:10.832Z,0
2017-10-25T00:18:10.815Z,0
2017-10-25T00:19:10.477Z,0
2017-10-25T00:20:10.766Z,0
2017-10-25T00:21:11.101Z,0
2017-10-25T00:22:10.427Z,0
2017-10-25T00:23:11.052Z,0
2017-10-25T00:24:10.705Z,0
2017-10-25T00:25:11.012Z,0
2017-10-25T00:26:10.676Z,0
2017-10-25T00:27:10.663Z,0
2017-10-25T00:28:10.965Z,0
2017-10-25T00:29:10.976Z,0
2017-10-25T00:30:10.953Z,0
2017-10-25T00:31:10.603Z,0
2017-10-25T00:32:10.584Z,0
2017-10-25T00:33:10.572Z,0
2017-10-25T00:34:10.861Z,0
2017-10-25T00:35:10.865Z,0
2017-10-25T00:36:10.494Z,0
2017-10-25T00:37:10.816Z,0
2017-10-25T00:38:10.811Z,0
2017-10-25T00:39:10.785Z,0
2017-10-25T00:40:09.800Z,0
2017-10-25T00:41:10.768Z,0
2017-10-25T00:42:10.083Z,0
2017-10-25T00:43:10.386Z,0
2017-10-25T00:44:10.370Z,0
2017-10-25T00:45:10.671Z,0
2017-10-25T00:46:10.026Z,0
2017-10-25T00:47:10.664Z,0
2017-10-25T00:48:09.983Z,0
2017-10-25T00:49:09.976Z,0
2017-10-25T00:50:10.594Z,0
2017-10-25T00:51:10.246Z,0
2017-10-25T00:52:09.585Z,0
2017-10-25T00:53:10.216Z,0
2017-10-25T00:54:10.537Z,0
2017-10-25T00:55:10.183Z,0
2017-10-25T00:56:10.183Z,0
2017-10-25T00:57:10.484Z,0
2017-10-25T00:58:09.812Z,0
2017-10-25T00:59:10.106Z,0
2017-10-25T01:00:10.435Z,0
2017-10-25T01:01:10.431Z,0
2017-10-25T01:02:10.074Z,0
2017-10-25T01:03:10.046Z,0
2017-10-25T01:04:10.344Z,0
2017-10-25T01:05:10.334Z,0
2017-10-25T01:06:10.046Z,0
2017-10-25T01:07:09.994Z,0
2017-10-25T01:08:09.315Z,0
2017-10-25T01:09:09.634Z,0
2017-10-25T01:10:10.269Z,0
2017-10-25T01:11:09.929Z,0
2017-10-25T01:12:09.903Z,0
2017-10-25T01:13:09.615Z,0
2017-10-25T01:14:09.858Z,0
2017-10-25T01:15:09.536Z,0
2017-10-25T01:16:10.169Z,0
2017-10-25T01:17:10.144Z,0
2017-10-25T01:18:09.815Z,0
2017-10-25T01:19:09.455Z,0
2017-10-25T01:20:10.076Z,0
2017-10-25T01:21:09.795Z,0
2017-10-25T01:22:09.733Z,0
2017-10-25T01:23:09.746Z,0
2017-10-25T01:24:10.026Z,0
2017-10-25T01:25:09.691Z,0
2017-10-25T01:26:09.983Z,0
2017-10-25T01:27:09.965Z,0
2017-10-25T01:28:09.973Z,0
2017-10-25T01:29:09.622Z,0
2017-10-25T01:30:09.603Z,0
2017-10-25T01:31:09.902Z,0
2017-10-25T01:32:09.301Z,0
2017-10-25T01:33:09.555Z,0
2017-10-25T01:34:09.876Z,0
2017-10-25T01:35:09.526Z,0
2017-10-25T01:36:09.500Z,0
2017-10-25T01:37:09.793Z,0
2017-10-25T01:38:09.463Z,0
2017-10-25T01:39:09.781Z,0
2017-10-25T01:40:09.103Z,0
2017-10-25T01:41:09.833Z,0
2017-10-25T01:42:09.742Z,0
2017-10-25T01:43:09.687Z,0
2017-10-25T01:44:09.713Z,0
2017-10-25T01:45:09.663Z,0
2017-10-25T01:46:09.655Z,0
2017-10-25T01:47:09.353Z,0
2017-10-25T01:48:09.679Z,0
2017-10-25T01:49:09.676Z,0
2017-10-25T01:50:09.583Z,0
2017-10-25T01:51:09.690Z,0
2017-10-25T01:52:09.562Z,0
2017-10-25T01:53:09.548Z,0
2017-10-25T01:54:09.508Z,0
2017-10-25T01:55:09.505Z,0
2017-10-25T01:56:08.842Z,0
2017-10-25T01:57:09.472Z,0
2017-10-25T01:58:08.802Z,0
2017-10-25T01:59:08.793Z,0
2017-10-25T02:00:09.082Z,0
2017-10-25T02:01:09.073Z,0
2017-10-25T02:02:08.755Z,0
2017-10-25T02:03:09.402Z,0
2017-10-25T02:04:08.705Z,0
2017-10-25T02:05:08.996Z,0
2017-10-25T02:06:09.000Z,0
2017-10-25T02:07:08.652Z,0
2017-10-25T02:08:08.635Z,0
2017-10-25T02:09:08.623Z,0
2017-10-25T02:10:08.932Z,0
2017-10-25T02:11:09.232Z,0
2017-10-25T02:12:08.883Z,0
2017-10-25T02:13:08.891Z,0
2017-10-25T02:14:08.551Z,0
2017-10-25T02:15:09.174Z,0
2017-10-25T02:16:09.144Z,0
2017-10-25T02:17:09.216Z,0
2017-10-25T02:18:09.195Z,0
2017-10-25T02:19:08.552Z,0
2017-10-25T02:20:08.744Z,0
2017-10-25T02:21:09.052Z,0
2017-10-25T02:22:09.048Z,0
2017-10-25T02:23:08.466Z,0
2017-10-25T02:24:08.362Z,0
2017-10-25T02:25:08.711Z,0
2017-10-25T02:26:08.351Z,0
2017-10-25T02:27:08.376Z,0
2017-10-25T02:28:08.612Z,0
2017-10-25T02:29:08.351Z,0
2017-10-25T02:30:08.586Z,0
2017-10-25T02:31:08.672Z,0
2017-10-25T02:32:08.922Z,0
2017-10-25T02:33:08.845Z,0
2017-10-25T02:34:08.503Z,0
2017-10-25T02:35:08.592Z,0
2017-10-25T02:36:08.830Z,0
2017-10-25T02:37:07.860Z,0
2017-10-25T02:38:08.771Z,0
2017-10-25T02:39:08.486Z,0
2017-10-25T02:40:08.085Z,0
2017-10-25T02:41:08.762Z,0
2017-10-25T02:42:08.091Z,0
2017-10-25T02:43:08.360Z,0
2017-10-25T02:44:08.353Z,0
2017-10-25T02:45:08.356Z,0
2017-10-25T02:46:08.627Z,0
2017-10-25T02:47:08.425Z,0
2017-10-25T02:48:08.283Z,0
2017-10-25T02:49:08.307Z,0
2017-10-25T02:50:08.258Z,0
2017-10-25T02:51:07.932Z,0
2017-10-25T02:52:08.202Z,0
2017-10-25T02:53:08.202Z,0
2017-10-25T02:54:07.854Z,0
2017-10-25T02:55:08.525Z,0
2017-10-25T02:56:07.831Z,0
2017-10-25T02:57:07.791Z,0
2017-10-25T02:58:07.806Z,0
2017-10-25T02:59:08.414Z,0
2017-10-25T03:00:08.111Z,0
2017-10-25T03:01:07.405Z,0
2017-10-25T03:02:08.423Z,0
2017-10-25T03:03:07.369Z,0
2017-10-25T03:04:08.004Z,0
2017-10-25T03:05:08.407Z,0
2017-10-25T03:06:07.962Z,0
2017-10-25T03:07:07.971Z,0
2017-10-25T03:08:07.612Z,0
2017-10-25T03:09:07.604Z,0
2017-10-25T03:10:07.906Z,0
2017-10-25T03:11:07.881Z,0
2017-10-25T03:12:07.866Z,0
2017-10-25T03:13:07.615Z,0
2017-10-25T03:14:07.832Z,0
2017-10-25T03:15:07.823Z,0
2017-10-25T03:16:07.148Z,0
2017-10-25T03:17:08.134Z,0
2017-10-25T03:18:07.781Z,0
2017-10-25T03:19:08.062Z,0
2017-10-25T03:20:08.054Z,0
2017-10-25T03:21:07.700Z,0
2017-10-25T03:22:08.011Z,0
2017-10-25T03:23:07.029Z,0
2017-10-25T03:24:07.663Z,0
2017-10-25T03:25:07.972Z,0
2017-10-25T03:26:07.635Z,0
2017-10-25T03:27:07.950Z,0
2017-10-25T03:28:07.604Z,0
2017-10-25T03:29:07.257Z,0
2017-10-25T03:30:07.571Z,0
2017-10-25T03:31:07.559Z,0
2017-10-25T03:32:06.876Z,0
2017-10-25T03:33:07.500Z,0
2017-10-25T03:34:07.170Z,0
2017-10-25T03:35:07.472Z,0
2017-10-25T03:36:07.501Z,0
2017-10-25T03:37:07.439Z,0
2017-10-25T03:38:07.752Z,0
2017-10-25T03:39:07.088Z,0
2017-10-25T03:40:07.051Z,0
2017-10-25T03:41:07.362Z,0
2017-10-25T03:42:07.040Z,0
2017-10-25T03:43:07.326Z,0
2017-10-25T03:44:07.632Z,0
2017-10-25T03:45:07.302Z,0
2017-10-25T03:46:06.950Z,0
2017-10-25T03:47:07.260Z,0
2017-10-25T03:48:07.567Z,0
2017-10-25T03:49:07.222Z,0
2017-10-25T03:50:07.532Z,0
2017-10-25T03:51:07.515Z,0
2017-10-25T03:52:07.197Z,0
2017-10-25T03:53:07.179Z,0
2017-10-25T03:54:07.142Z,0
2017-10-25T03:55:07.151Z,0
2017-10-25T03:56:07.444Z,0
2017-10-25T03:57:07.414Z,0
2017-10-25T03:58:07.097Z,0
2017-10-25T03:59:07.070Z,0
2017-10-25T04:00:07.040Z,0
2017-10-25T04:01:07.341Z,0
2017-10-25T04:02:07.361Z,0
2017-10-25T04:03:07.326Z,0
2017-10-25T04:04:06.985Z,0
2017-10-25T04:05:07.293Z,0
2017-10-25T04:06:07.299Z,0
2017-10-25T04:07:07.262Z,0
2017-10-25T04:08:07.273Z,0
2017-10-25T04:09:07.213Z,0
2017-10-25T04:10:06.871Z,0
2017-10-25T04:11:06.869Z,0
2017-10-25T04:12:06.842Z,0
2017-10-25T04:13:07.151Z,0
2017-10-25T04:14:07.153Z,0
2017-10-25T04:15:07.124Z,0
2017-10-25T04:16:07.102Z,0
2017-10-25T04:17:06.752Z,0
2017-10-25T04:18:07.071Z,0
2017-10-25T04:19:07.062Z,0
2017-10-25T04:20:07.021Z,0
2017-10-25T04:21:06.372Z,0
2017-10-25T04:22:06.350Z,0
2017-10-25T04:23:06.661Z,0
2017-10-25T04:24:06.381Z,0
2017-10-25T04:25:06.931Z,0
2017-10-25T04:26:06.599Z,0
2017-10-25T04:27:06.601Z,0
2017-10-25T04:28:06.903Z,0
2017-10-25T04:29:06.872Z,0
2017-10-25T04:30:06.211Z,0
2017-10-25T04:31:06.621Z,0
2017-10-25T04:32:06.835Z,0
2017-10-25T04:33:06.541Z,0
2017-10-25T04:34:06.472Z,0
2017-10-25T04:35:06.460Z,0
2017-10-25T04:36:06.761Z,0
2017-10-25T04:37:06.091Z,0
2017-10-25T04:38:06.724Z,0
2017-10-25T04:39:06.724Z,0
2017-10-25T04:40:06.702Z,0
2017-10-25T04:41:06.686Z,0
2017-10-25T04:42:06.021Z,0
2017-10-25T04:43:06.662Z,0
2017-10-25T04:44:05.999Z,0
2017-10-25T04:45:05.958Z,0
2017-10-25T04:46:05.952Z,0
2017-10-25T04:47:05.990Z,0
2017-10-25T04:48:06.225Z,0
2017-10-25T04:49:06.233Z,0
2017-10-25T04:50:06.540Z,0
2017-10-25T04:51:06.527Z,0
2017-10-25T04:52:06.272Z,0
2017-10-25T04:53:05.831Z,0
2017-10-25T04:54:06.446Z,0
2017-10-25T04:55:06.157Z,0
2017-10-25T04:56:05.794Z,0
2017-10-25T04:57:05.434Z,0
2017-10-25T04:58:06.385Z,0
2017-10-25T04:59:05.778Z,0
2017-10-25T05:00:05.704Z,0
2017-10-25T05:01:06.334Z,0
2017-10-25T05:02:06.314Z,0
2017-10-25T05:03:06.293Z,0
2017-10-25T05:04:05.645Z,0
2017-10-25T05:05:05.973Z,0
2017-10-25T05:06:05.940Z,0
2017-10-25T05:07:05.904Z,0
2017-10-25T05:08:05.951Z,0
2017-10-25T05:09:05.913Z,0
2017-10-25T05:10:05.970Z,0
2017-10-25T05:11:05.832Z,0
2017-10-25T05:12:05.824Z,0
2017-10-25T05:13:05.828Z,0
2017-10-25T05:14:05.872Z,0
2017-10-25T05:15:06.104Z,0
2017-10-25T05:16:05.430Z,0
2017-10-25T05:17:05.732Z,0
2017-10-25T05:18:05.750Z,0
2017-10-25T05:19:06.007Z,0
2017-10-25T05:20:05.802Z,0
2017-10-25T05:21:05.992Z,0
2017-10-25T05:22:05.327Z,0
2017-10-25T05:23:05.954Z,0
2017-10-25T05:24:05.281Z,0
2017-10-25T05:25:05.613Z,0
2017-10-25T05:26:05.266Z,0
2017-10-25T05:27:05.571Z,0
2017-10-25T05:28:05.986Z,0
2017-10-25T05:29:05.215Z,0
2017-10-25T05:30:05.975Z,0
2017-10-25T05:31:05.487Z,0
2017-10-25T05:32:05.484Z,0
2017-10-25T05:33:05.798Z,0
2017-10-25T05:34:05.522Z,0
2017-10-25T05:35:05.852Z,0
2017-10-25T05:36:05.792Z,0
2017-10-25T05:37:05.374Z,0
2017-10-25T05:38:04.733Z,0
2017-10-25T05:39:05.368Z,0
2017-10-25T05:40:05.677Z,0
2017-10-25T05:41:05.320Z,0
2017-10-25T05:42:04.973Z,0
2017-10-25T05:43:04.978Z,0
2017-10-25T05:44:04.968Z,0
2017-10-25T05:45:05.709Z,0
2017-10-25T05:46:05.258Z,0
2017-10-25T05:47:04.902Z,0
2017-10-25T05:48:05.227Z,0
2017-10-25T05:49:05.194Z,0
2017-10-25T05:50:04.917Z,0
2017-10-25T05:51:05.543Z,0
2017-10-25T05:52:05.460Z,0
2017-10-25T05:53:04.796Z,0
2017-10-25T05:54:05.474Z,4
2017-10-25T05:55:05.434Z,0
2017-10-25T05:56:05.163Z,4
2017-10-25T05:57:04.742Z,4
2017-10-25T05:58:04.709Z,4
2017-10-25T05:59:05.332Z,8
2017-10-25T06:00:05.069Z,4
2017-10-25T06:01:04.995Z,8
2017-10-25T06:02:05.391Z,12
2017-10-25T06:03:04.952Z,16
2017-10-25T06:04:04.662Z,16
2017-10-25T06:05:05.219Z,16
2017-10-25T06:06:05.274Z,20
2017-10-25T06:07:04.884Z,24
2017-10-25T06:08:04.899Z,28
2017-10-25T06:09:04.847Z,32
2017-10-25T06:10:05.142Z,40
2017-10-25T06:11:04.822Z,44
2017-10-25T06:12:04.777Z,52
2017-10-25T06:13:04.835Z,56
2017-10-25T06:14:05.136Z,52
2017-10-25T06:15:04.808Z,52
2017-10-25T06:16:05.120Z,52
2017-10-25T06:17:04.727Z,56
2017-10-25T06:18:04.778Z,68
2017-10-25T06:19:04.683Z,80
2017-10-25T06:20:05.031Z,108
2017-10-25T06:21:04.743Z,112
2017-10-25T06:22:04.381Z,108
2017-10-25T06:23:04.614Z,92
2017-10-25T06:24:04.923Z,144
2017-10-25T06:25:04.952Z,180
2017-10-25T06:26:04.701Z,232
2017-10-25T06:27:04.589Z,264
2017-10-25T06:28:04.861Z,292
2017-10-25T06:29:04.880Z,296
2017-10-25T06:30:04.878Z,264
2017-10-25T06:31:04.814Z,256
2017-10-25T06:32:04.442Z,280
2017-10-25T06:33:04.829Z,332
2017-10-25T06:34:04.105Z,364
2017-10-25T06:35:04.450Z,372
2017-10-25T06:36:04.733Z,360
2017-10-25T06:37:04.062Z,380
2017-10-25T06:38:04.141Z,376
2017-10-25T06:39:04.331Z,340
2017-10-25T06:40:04.311Z,256
2017-10-25T06:41:04.332Z,220
2017-10-25T06:42:04.742Z,224
2017-10-25T06:43:04.632Z,284
2017-10-25T06:44:04.658Z,252
2017-10-25T06:45:04.592Z,284
2017-10-25T06:46:04.201Z,452
2017-10-25T06:47:04.260Z,444
2017-10-25T06:48:03.863Z,352
2017-10-25T06:49:03.844Z,496
2017-10-25T06:50:04.474Z,512
2017-10-25T06:51:04.461Z,464
2017-10-25T06:52:03.893Z,476
2017-10-25T06:53:04.110Z,592
2017-10-25T06:54:04.402Z,756
2017-10-25T06:55:03.732Z,720
2017-10-25T06:56:03.722Z,904
2017-10-25T06:57:04.351Z,1020
2017-10-25T06:58:03.684Z,896
2017-10-25T06:59:04.023Z,808
2017-10-25T07:00:04.012Z,732
2017-10-25T07:01:03.941Z,712
2017-10-25T07:02:04.302Z,592
2017-10-25T07:03:04.263Z,632
2017-10-25T07:04:04.293Z,588
2017-10-25T07:05:04.226Z,716
2017-10-25T07:06:04.211Z,544
2017-10-25T07:07:04.181Z,596
2017-10-25T07:08:04.152Z,776
2017-10-25T07:09:03.821Z,780
2017-10-25T07:10:04.162Z,748
2017-10-25T07:11:04.178Z,952
2017-10-25T07:12:03.779Z,1256
2017-10-25T07:13:03.779Z,1372
2017-10-25T07:14:03.733Z,1684
2017-10-25T07:15:03.731Z,1408
2017-10-25T07:16:04.043Z,1428
2017-10-25T07:17:03.659Z,1248
2017-10-25T07:18:03.682Z,1344
2017-10-25T07:19:03.994Z,1336
2017-10-25T07:20:03.662Z,1628
2017-10-25T07:21:03.952Z,2352
2017-10-25T07:22:03.602Z,3000
2017-10-25T07:23:03.585Z,3248
2017-10-25T07:24:03.925Z,3808
2017-10-25T07:25:02.900Z,4764
2017-10-25T07:26:03.541Z,4040
2017-10-25T07:27:03.873Z,3976
2017-10-25T07:28:03.852Z,5952
2017-10-25T07:29:03.493Z,6440
2017-10-25T07:30:02.821Z,7200
2017-10-25T07:31:03.468Z,6432
2017-10-25T07:32:04.052Z,5724
2017-10-25T07:33:03.746Z,5508
2017-10-25T07:34:03.752Z,6008
2017-10-25T07:35:03.402Z,6636
2017-10-25T07:36:03.718Z,7664
2017-10-25T07:37:03.695Z,7308
2017-10-25T07:38:03.682Z,5328
2017-10-25T07:39:03.675Z,6696
2017-10-25T07:40:03.321Z,7284
2017-10-25T07:41:03.293Z,10076
2017-10-25T07:42:03.620Z,9900
2017-10-25T07:43:03.270Z,9948
2017-10-25T07:44:03.565Z,9672
2017-10-25T07:45:02.964Z,8176
2017-10-25T07:46:03.533Z,8156
2017-10-25T07:47:03.524Z,7864
2017-10-25T07:48:03.182Z,7968
2017-10-25T07:49:02.627Z,8120
2017-10-25T07:50:03.484Z,11284
2017-10-25T07:51:03.252Z,14272
2017-10-25T07:52:03.111Z,14560
2017-10-25T07:53:03.085Z,16864
2017-10-25T07:54:03.430Z,20928
2017-10-25T07:55:03.073Z,18848
2017-10-25T07:56:03.075Z,23872
2017-10-25T07:57:03.042Z,25664
2017-10-25T07:58:03.039Z,19520
2017-10-25T07:59:02.688Z,18400
2017-10-25T08:00:03.338Z,22528
2017-10-25T08:01:03.294Z,26496
2017-10-25T08:02:02.990Z,26944
2017-10-25T08:03:02.696Z,23104
2017-10-25T08:04:03.276Z,21120
2017-10-25T08:05:03.559Z,26048
2017-10-25T08:06:03.251Z,28192
2017-10-25T08:07:02.899Z,24192
2017-10-25T08:08:03.213Z,19776
2017-10-25T08:09:03.216Z,23296
2017-10-25T08:10:03.353Z,26368
2017-10-25T08:11:02.252Z,29888
2017-10-25T08:12:03.173Z,30976
2017-10-25T08:13:02.499Z,30400
2017-10-25T08:14:02.827Z,20640
2017-10-25T08:15:03.130Z,21184
2017-10-25T08:16:03.186Z,25088
2017-10-25T08:17:02.891Z,23296
2017-10-25T08:18:02.788Z,28896
2017-10-25T08:19:02.763Z,26176
2017-10-25T08:20:02.510Z,29088
2017-10-25T08:21:02.406Z,25600
2017-10-25T08:22:03.061Z,29088
2017-10-25T08:23:02.710Z,22528
2017-10-25T08:24:02.886Z,24384
2017-10-25T08:25:03.022Z,27008
2017-10-25T08:26:02.687Z,28224
2017-10-25T08:27:02.322Z,32224
2017-10-25T08:28:02.713Z,34048
2017-10-25T08:29:02.644Z,31488
2017-10-25T08:30:02.706Z,27296
2017-10-25T08:31:02.623Z,29440
2017-10-25T08:32:02.271Z,26400
2017-10-25T08:33:02.913Z,23168
2017-10-25T08:34:02.905Z,25280
2017-10-25T08:35:02.244Z,35680
2017-10-25T08:36:02.921Z,43744
2017-10-25T08:37:02.920Z,29312
2017-10-25T08:38:02.285Z,42880
2017-10-25T08:39:02.221Z,42560
2017-10-25T08:40:02.864Z,12772
2017-10-25T08:41:02.868Z,36704
2017-10-25T08:42:02.475Z,33760
2017-10-25T08:43:02.557Z,15520
2017-10-25T08:44:02.782Z,39360
2017-10-25T08:45:02.489Z,35136
2017-10-25T08:46:02.444Z,21280
2017-10-25T08:47:02.816Z,20128
2017-10-25T08:48:02.774Z,39712
2017-10-25T08:49:02.758Z,33952
2017-10-25T08:50:02.097Z,28640
2017-10-25T08:51:02.701Z,24128
2017-10-25T08:52:02.392Z,43264
2017-10-25T08:53:02.421Z,8516
2017-10-25T08:54:02.352Z,12304
2017-10-25T08:55:02.688Z,50496
2017-10-25T08:56:02.664Z,45760
2017-10-25T08:57:02.324Z,43040
2017-10-25T08:58:02.644Z,13280
2017-10-25T08:59:02.632Z,9024
2017-10-25T09:00:02.306Z,8124
2017-10-25T09:01:02.623Z,14976
2017-10-25T09:02:02.600Z,10252
2017-10-25T09:03:02.283Z,7604
2017-10-25T09:04:02.594Z,9044
2017-10-25T09:05:02.575Z,7908
2017-10-25T09:06:02.570Z,7452
2017-10-25T09:07:02.542Z,6520
2017-10-25T09:08:02.530Z,6144
2017-10-25T09:09:02.552Z,6008
2017-10-25T09:10:02.451Z,8136
2017-10-25T09:11:01.874Z,6848
2017-10-25T09:12:02.496Z,5428
2017-10-25T09:13:02.182Z,3352
2017-10-25T09:14:02.256Z,4068
2017-10-25T09:15:02.767Z,6560
2017-10-25T09:16:02.132Z,32448
2017-10-25T09:17:02.445Z,6188
2017-10-25T09:18:02.442Z,13872
2017-10-25T09:19:02.421Z,5400
2017-10-25T09:20:02.477Z,5056
2017-10-25T09:21:02.387Z,4204
2017-10-25T09:22:02.053Z,4024
2017-10-25T09:23:02.397Z,3216
2017-10-25T09:24:02.098Z,2404
2017-10-25T09:25:02.393Z,2024
2017-10-25T09:26:02.359Z,2712
2017-10-25T09:27:02.457Z,2828
2017-10-25T09:28:02.310Z,3272
2017-10-25T09:29:02.332Z,2936
2017-10-25T09:30:02.313Z,2776
2017-10-25T09:31:02.262Z,3404
2017-10-25T09:32:01.262Z,3680
2017-10-25T09:33:02.278Z,3888
2017-10-25T09:34:01.884Z,3376
2017-10-25T09:35:02.195Z,3624
2017-10-25T09:36:01.886Z,4012
2017-10-25T09:37:02.173Z,26624
2017-10-25T09:38:02.193Z,3504
2017-10-25T09:39:02.132Z,3448
2017-10-25T09:40:02.102Z,3112
2017-10-25T09:41:02.163Z,2544
2017-10-25T09:42:01.760Z,2384
2017-10-25T09:43:02.082Z,2640
2017-10-25T09:44:01.736Z,3576
2017-10-25T09:45:02.430Z,7792
2017-10-25T09:46:01.722Z,5000
2017-10-25T09:47:02.027Z,4452
2017-10-25T09:48:01.990Z,3264
2017-10-25T09:49:01.981Z,2828
2017-10-25T09:50:01.975Z,2076
2017-10-25T09:51:02.033Z,1476
2017-10-25T09:52:01.964Z,1040
2017-10-25T09:53:02.003Z,952
2017-10-25T09:54:01.600Z,860
2017-10-25T09:55:01.887Z,804
2017-10-25T09:56:01.602Z,1032
2017-10-25T09:57:01.553Z,1116
2017-10-25T09:58:01.194Z,1112
2017-10-25T09:59:01.889Z,1172
2017-10-25T10:00:00.912Z,1344
2017-10-25T10:01:01.474Z,1564
2017-10-25T10:02:01.491Z,1732
2017-10-25T10:03:01.423Z,1660
2017-10-25T10:04:01.742Z,1516
2017-10-25T10:05:01.413Z,1440
2017-10-25T10:06:01.407Z,1220
2017-10-25T10:07:00.720Z,1024
2017-10-25T10:08:01.713Z,836
2017-10-25T10:09:01.345Z,804
2017-10-25T10:10:01.381Z,708
2017-10-25T10:11:01.637Z,652
2017-10-25T10:12:01.292Z,704
2017-10-25T10:13:01.633Z,836
2017-10-25T10:14:01.625Z,948
2017-10-25T10:15:01.577Z,1000
2017-10-25T10:16:01.237Z,1004
2017-10-25T10:17:01.576Z,1028
2017-10-25T10:18:00.884Z,1128
2017-10-25T10:19:01.246Z,1212
2017-10-25T10:20:00.841Z,1324
2017-10-25T10:21:01.493Z,1376
2017-10-25T10:22:01.462Z,1472
2017-10-25T10:23:01.450Z,1736
2017-10-25T10:24:01.442Z,2132
2017-10-25T10:25:01.400Z,2880
2017-10-25T10:26:01.438Z,4692
2017-10-25T10:27:01.064Z,6148
2017-10-25T10:28:01.584Z,5664
2017-10-25T10:29:01.345Z,5140
2017-10-25T10:30:00.362Z,5628
2017-10-25T10:31:01.324Z,6612
2017-10-25T10:32:00.995Z,7192
2017-10-25T10:33:00.949Z,7280
2017-10-25T10:34:01.387Z,7108
2017-10-25T10:35:01.301Z,5672
2017-10-25T10:36:01.268Z,4520
2017-10-25T10:37:01.272Z,3844
2017-10-25T10:38:00.250Z,3560
2017-10-25T10:39:01.195Z,3728
2017-10-25T10:40:00.873Z,3764
2017-10-25T10:41:01.152Z,3736
2017-10-25T10:42:01.143Z,3656
2017-10-25T10:43:01.142Z,2988
2017-10-25T10:44:00.484Z,2836
2017-10-25T10:45:00.790Z,3084
2017-10-25T10:46:01.073Z,3288
2017-10-25T10:47:01.107Z,3296
2017-10-25T10:48:01.074Z,2944
2017-10-25T10:49:00.391Z,2504
2017-10-25T10:50:00.382Z,2260
2017-10-25T10:51:00.843Z,2092
2017-10-25T10:52:00.982Z,1788
2017-10-25T10:53:00.768Z,1836
2017-10-25T10:54:00.974Z,2060
2017-10-25T10:55:00.613Z,2072
2017-10-25T10:56:00.923Z,2308
2017-10-25T10:57:00.916Z,2372
2017-10-25T10:58:00.593Z,2160
2017-10-25T10:59:00.602Z,2096
2017-10-25T11:00:00.590Z,2332
2017-10-25T11:01:00.612Z,2648
2017-10-25T11:02:00.615Z,2220
2017-10-25T11:02:59.846Z,1856
2017-10-25T11:04:00.822Z,1508
2017-10-25T11:05:00.502Z,1308
2017-10-25T11:06:00.777Z,1180
2017-10-25T11:07:00.513Z,1020
2017-10-25T11:08:00.737Z,824
2017-10-25T11:09:00.753Z,748
2017-10-25T11:10:00.392Z,792
2017-10-25T11:11:00.052Z,780
2017-10-25T11:12:00.020Z,772
2017-10-25T11:13:00.694Z,880
2017-10-25T11:14:00.733Z,888
2017-10-25T11:15:00.348Z,860
2017-10-25T11:16:00.301Z,852
2017-10-25T11:17:00.280Z,748
2017-10-25T11:18:00.585Z,696
2017-10-25T11:19:00.353Z,696
2017-10-25T11:20:00.227Z,824
2017-10-25T11:21:00.206Z,780
2017-10-25T11:21:59.884Z,632
2017-10-25T11:23:00.354Z,876
2017-10-25T11:24:00.561Z,1020
2017-10-25T11:25:00.613Z,932
2017-10-25T11:26:00.453Z,1040
2017-10-25T11:27:00.143Z,1132
2017-10-25T11:28:00.102Z,1176
2017-10-25T11:29:00.105Z,1204
2017-10-25T11:30:00.098Z,1116
2017-10-25T11:31:00.144Z,1216
2017-10-25T11:32:00.044Z,1476
2017-10-25T11:33:00.096Z,1764
2017-10-25T11:34:00.349Z,2008
2017-10-25T11:35:00.005Z,2012
2017-10-25T11:36:00.342Z,2280
2017-10-25T11:36:59.949Z,2108
2017-10-25T11:38:00.314Z,1908
2017-10-25T11:39:00.255Z,2000
2017-10-25T11:40:00.308Z,2108
2017-10-25T11:40:59.898Z,2268
2017-10-25T11:42:00.211Z,2824
2017-10-25T11:43:00.203Z,3412
2017-10-25T11:43:59.844Z,3380
2017-10-25T11:45:00.160Z,3648
2017-10-25T11:46:00.174Z,3256
2017-10-25T11:47:00.131Z,3128
2017-10-25T11:48:00.102Z,3084
2017-10-25T11:49:00.171Z,2900
2017-10-25T11:50:00.083Z,3892
2017-10-25T11:51:00.054Z,4364
2017-10-25T11:52:00.106Z,4288
2017-10-25T11:53:00.065Z,3984
2017-10-25T11:54:00.074Z,3760
2017-10-25T11:54:59.693Z,3384
2017-10-25T11:56:00.087Z,2908
2017-10-25T11:56:59.651Z,2700
2017-10-25T11:58:00.073Z,2388
2017-10-25T11:59:00.036Z,2260
2017-10-25T11:59:59.924Z,2076
2017-10-25T12:00:59.702Z,1784
2017-10-25T12:01:59.871Z,1748
2017-10-25T12:02:59.883Z,1788
2017-10-25T12:03:59.861Z,1888
2017-10-25T12:04:59.916Z,2020
2017-10-25T12:05:59.828Z,2188
2017-10-25T12:06:59.478Z,2428
2017-10-25T12:07:59.817Z,2316
2017-10-25T12:08:59.827Z,2012
2017-10-25T12:09:59.831Z,2112
2017-10-25T12:10:59.432Z,2108
2017-10-25T12:11:59.402Z,2164
2017-10-25T12:12:59.693Z,2120
2017-10-25T12:13:59.692Z,1676
2017-10-25T12:14:59.771Z,1256
2017-10-25T12:15:59.324Z,1452
2017-10-25T12:16:59.632Z,1588
2017-10-25T12:17:59.308Z,1736
2017-10-25T12:18:59.644Z,1764
2017-10-25T12:19:59.268Z,1548
2017-10-25T12:20:59.288Z,1428
2017-10-25T12:21:59.235Z,1468
2017-10-25T12:22:59.551Z,1472
2017-10-25T12:23:59.230Z,1292
2017-10-25T12:24:59.259Z,1332
2017-10-25T12:25:59.534Z,1588
2017-10-25T12:26:59.470Z,1640
2017-10-25T12:27:59.589Z,1408
2017-10-25T12:28:59.435Z,1556
2017-10-25T12:29:59.423Z,1476
2017-10-25T12:30:59.090Z,1504
2017-10-25T12:31:59.070Z,1876
2017-10-25T12:32:59.041Z,1840
2017-10-25T12:33:59.393Z,1748
2017-10-25T12:34:59.010Z,1580
2017-10-25T12:35:59.322Z,1612
2017-10-25T12:36:58.990Z,1580
2017-10-25T12:37:58.982Z,1600
2017-10-25T12:38:58.967Z,1780
2017-10-25T12:39:59.261Z,1868
2017-10-25T12:40:58.927Z,1880
2017-10-25T12:41:58.929Z,1876
2017-10-25T12:42:58.881Z,1508
2017-10-25T12:43:59.271Z,1344
2017-10-25T12:44:59.175Z,1416
2017-10-25T12:45:58.520Z,1524
2017-10-25T12:46:58.804Z,1616
2017-10-25T12:47:59.153Z,1952
2017-10-25T12:48:59.119Z,1940
2017-10-25T12:49:58.788Z,2088
2017-10-25T12:50:58.743Z,2348
2017-10-25T12:51:58.403Z,2128
2017-10-25T12:52:59.042Z,1984
2017-10-25T12:53:59.031Z,1712
2017-10-25T12:54:58.710Z,1352
2017-10-25T12:55:58.673Z,1012
2017-10-25T12:56:58.992Z,1032
2017-10-25T12:57:58.999Z,1152
2017-10-25T12:58:58.753Z,1276
2017-10-25T12:59:58.604Z,1096
2017-10-25T13:00:58.915Z,1016
2017-10-25T13:01:58.899Z,1144
2017-10-25T13:02:58.550Z,1244
2017-10-25T13:03:58.552Z,1532
2017-10-25T13:04:58.852Z,1620
2017-10-25T13:05:58.515Z,1580
2017-10-25T13:06:58.501Z,1640
2017-10-25T13:07:58.149Z,1860
2017-10-25T13:08:58.453Z,1724
2017-10-25T13:09:58.771Z,1584
2017-10-25T13:10:58.420Z,1504
2017-10-25T13:11:58.744Z,1256
2017-10-25T13:12:58.714Z,1140
2017-10-25T13:13:58.712Z,1080
2017-10-25T13:14:58.975Z,1084
2017-10-25T13:15:58.012Z,1164
2017-10-25T13:16:58.661Z,1340
2017-10-25T13:17:58.307Z,1372
2017-10-25T13:18:57.979Z,1320
2017-10-25T13:19:58.270Z,1080
2017-10-25T13:20:58.259Z,884
2017-10-25T13:21:58.584Z,848
2017-10-25T13:22:58.212Z,840
2017-10-25T13:23:58.210Z,880
2017-10-25T13:24:58.785Z,852
2017-10-25T13:25:58.264Z,700
2017-10-25T13:26:58.489Z,740
2017-10-25T13:27:58.134Z,708
2017-10-25T13:28:58.138Z,544
2017-10-25T13:29:58.442Z,604
2017-10-25T13:30:58.080Z,636
2017-10-25T13:31:58.425Z,624
2017-10-25T13:32:58.052Z,716
2017-10-25T13:33:58.351Z,752
2017-10-25T13:34:57.701Z,848
2017-10-25T13:35:58.342Z,920
2017-10-25T13:36:58.326Z,904
2017-10-25T13:37:57.985Z,772
2017-10-25T13:38:58.285Z,896
2017-10-25T13:39:58.277Z,776
2017-10-25T13:40:57.917Z,812
2017-10-25T13:41:57.921Z,748
2017-10-25T13:42:57.890Z,860
2017-10-25T13:43:57.861Z,816
2017-10-25T13:44:58.173Z,752
2017-10-25T13:45:58.138Z,800
2017-10-25T13:46:57.816Z,700
2017-10-25T13:47:58.154Z,696
2017-10-25T13:48:57.791Z,656
2017-10-25T13:49:57.881Z,660
2017-10-25T13:50:58.073Z,612
2017-10-25T13:51:58.060Z,628
2017-10-25T13:52:57.715Z,576
2017-10-25T13:53:57.693Z,608
2017-10-25T13:54:57.983Z,536
2017-10-25T13:55:57.667Z,588
2017-10-25T13:56:57.974Z,596